sensor_id;sensor_type;location;lat;lon;timestamp;pressure;altitude;pressure_sealevel;temperature;humidity
41703;BME280;861;48.808;9.006;2022-12-01T00:01:19;97589.66;;;6.31;76.90
41703;BME280;861;48.808;9.006;2022-12-01T00:03:45;97592.88;;;6.20;76.87
41703;BME280;861;48.808;9.006;2022-12-01T00:06:19;97595.38;;;6.41;75.70
41703;BME280;861;48.808;9.006;2022-12-01T00:08:50;97595.75;;;6.28;76.72
41703;BME280;861;48.808;9.006;2022-12-01T00:11:37;97597.41;;;6.44;75.76
41703;BME280;861;48.808;9.006;2022-12-01T00:14:05;97602.19;;;6.23;75.99
41703;BME280;861;48.808;9.006;2022-12-01T00:16:32;97593.28;;;5.95;77.63
41703;BME280;861;48.808;9.006;2022-12-01T00:18:59;97585.16;;;5.95;78.49
41703;BME280;861;48.808;9.006;2022-12-01T00:21:26;97593.16;;;5.91;78.16
41703;BME280;861;48.808;9.006;2022-12-01T00:23:57;97590.34;;;6.00;79.06
41703;BME280;861;48.808;9.006;2022-12-01T00:26:25;97585.78;;;6.16;78.41
41703;BME280;861;48.808;9.006;2022-12-01T00:28:57;97585.69;;;6.40;76.00
41703;BME280;861;48.808;9.006;2022-12-01T00:31:26;97592.59;;;6.38;75.78
41703;BME280;861;48.808;9.006;2022-12-01T00:33:53;97588.50;;;6.44;75.03
41703;BME280;861;48.808;9.006;2022-12-01T00:36:20;97602.53;;;6.21;75.11
41703;BME280;861;48.808;9.006;2022-12-01T00:38:54;97594.06;;;5.95;76.40
41703;BME280;861;48.808;9.006;2022-12-01T00:41:24;97594.50;;;5.97;76.59
41703;BME280;861;48.808;9.006;2022-12-01T00:43:51;97590.75;;;6.14;77.28
41703;BME280;861;48.808;9.006;2022-12-01T00:46:18;97592.22;;;6.39;75.67
41703;BME280;861;48.808;9.006;2022-12-01T00:48:47;97593.69;;;6.09;76.73
41703;BME280;861;48.808;9.006;2022-12-01T00:51:13;97591.38;;;6.23;76.15
41703;BME280;861;48.808;9.006;2022-12-01T00:53:39;97591.94;;;6.29;75.78
41703;BME280;861;48.808;9.006;2022-12-01T00:56:06;97590.69;;;6.26;75.69
41703;BME280;861;48.808;9.006;2022-12-01T00:58:32;97594.19;;;6.27;75.85
41703;BME280;861;48.808;9.006;2022-12-01T01:01:01;97593.63;;;6.33;75.02
41703;BME280;861;48.808;9.006;2022-12-01T01:03:31;97596.75;;;6.35;75.40
41703;BME280;861;48.808;9.006;2022-12-01T01:06:07;97600.81;;;6.29;75.07
41703;BME280;861;48.808;9.006;2022-12-01T01:08:37;97598.53;;;6.15;75.65
41703;BME280;861;48.808;9.006;2022-12-01T01:11:06;97601.50;;;6.26;75.38
41703;BME280;861;48.808;9.006;2022-12-01T01:13:33;97595.00;;;6.27;75.42
41703;BME280;861;48.808;9.006;2022-12-01T01:18:34;97603.63;;;6.05;76.10
41703;BME280;861;48.808;9.006;2022-12-01T01:21:14;97599.84;;;6.21;75.54
41703;BME280;861;48.808;9.006;2022-12-01T01:23:43;97607.72;;;6.27;74.44
41703;BME280;861;48.808;9.006;2022-12-01T01:28:43;97610.69;;;6.49;73.57
41703;BME280;861;48.808;9.006;2022-12-01T01:31:15;97609.19;;;6.52;73.71
41703;BME280;861;48.808;9.006;2022-12-01T01:33:44;97611.84;;;6.36;74.13
41703;BME280;861;48.808;9.006;2022-12-01T01:36:13;97603.84;;;6.40;74.06
41703;BME280;861;48.808;9.006;2022-12-01T01:38:41;97608.69;;;6.34;74.02
41703;BME280;861;48.808;9.006;2022-12-01T01:41:08;97613.66;;;6.32;75.31
41703;BME280;861;48.808;9.006;2022-12-01T01:43:48;97608.94;;;6.29;74.80
41703;BME280;861;48.808;9.006;2022-12-01T01:46:27;97609.50;;;6.35;74.44
41703;BME280;861;48.808;9.006;2022-12-01T01:49:08;97608.16;;;6.29;74.93
41703;BME280;861;48.808;9.006;2022-12-01T01:51:51;97603.06;;;6.39;74.32
41703;BME280;861;48.808;9.006;2022-12-01T01:54:35;97611.13;;;6.23;74.51
41703;BME280;861;48.808;9.006;2022-12-01T01:57:17;97613.72;;;6.20;75.59
41703;BME280;861;48.808;9.006;2022-12-01T02:00:03;97607.94;;;5.94;76.18
41703;BME280;861;48.808;9.006;2022-12-01T02:02:36;97609.38;;;6.03;76.34
41703;BME280;861;48.808;9.006;2022-12-01T02:05:13;97609.78;;;6.05;77.02
41703;BME280;861;48.808;9.006;2022-12-01T02:07:47;97604.47;;;6.21;75.28
41703;BME280;861;48.808;9.006;2022-12-01T02:10:17;97596.84;;;6.39;73.86
41703;BME280;861;48.808;9.006;2022-12-01T02:13:58;97604.91;;;6.23;75.21
41703;BME280;861;48.808;9.006;2022-12-01T02:17:15;97603.84;;;6.00;75.04
41703;BME280;861;48.808;9.006;2022-12-01T02:24:10;97595.53;;;5.93;76.24
41703;BME280;861;48.808;9.006;2022-12-01T02:30:25;97592.81;;;6.05;75.09
41703;BME280;861;48.808;9.006;2022-12-01T02:36:19;97588.56;;;6.19;74.12
41703;BME280;861;48.808;9.006;2022-12-01T02:42:21;97591.25;;;5.68;76.06
41703;BME280;861;48.808;9.006;2022-12-01T02:48:31;97583.47;;;5.78;75.77
41703;BME280;861;48.808;9.006;2022-12-01T02:51:34;97579.63;;;6.03;74.02
41703;BME280;861;48.808;9.006;2022-12-01T02:54:04;97589.44;;;5.96;75.42
41703;BME280;861;48.808;9.006;2022-12-01T02:56:31;97584.13;;;5.99;74.14
41703;BME280;861;48.808;9.006;2022-12-01T02:58:57;97589.75;;;6.06;74.03
41703;BME280;861;48.808;9.006;2022-12-01T03:04:44;97586.19;;;5.66;76.02
41703;BME280;861;48.808;9.006;2022-12-01T03:13:38;97585.16;;;5.95;74.28
41703;BME280;861;48.808;9.006;2022-12-01T03:16:37;97581.72;;;6.10;74.54
41703;BME280;861;48.808;9.006;2022-12-01T03:19:43;97588.69;;;5.83;74.05
41703;BME280;861;48.808;9.006;2022-12-01T03:22:33;97586.31;;;5.82;74.73
41703;BME280;861;48.808;9.006;2022-12-01T03:25:08;97589.34;;;5.92;73.03
41703;BME280;861;48.808;9.006;2022-12-01T03:27:45;97589.56;;;5.75;74.46
41703;BME280;861;48.808;9.006;2022-12-01T03:30:15;97580.22;;;5.85;74.70
41703;BME280;861;48.808;9.006;2022-12-01T03:33:00;97576.94;;;5.91;72.25
41703;BME280;861;48.808;9.006;2022-12-01T03:35:52;97581.25;;;5.92;73.29
41703;BME280;861;48.808;9.006;2022-12-01T03:38:29;97588.44;;;5.88;73.24
41703;BME280;861;48.808;9.006;2022-12-01T03:41:09;97585.28;;;5.74;74.00
41703;BME280;861;48.808;9.006;2022-12-01T03:43:56;97588.22;;;5.81;73.79
41703;BME280;861;48.808;9.006;2022-12-01T03:46:56;97583.03;;;5.76;73.75
41703;BME280;861;48.808;9.006;2022-12-01T03:49:31;97582.16;;;5.60;73.92
41703;BME280;861;48.808;9.006;2022-12-01T03:55:30;97588.34;;;5.73;74.45
41703;BME280;861;48.808;9.006;2022-12-01T03:58:23;97593.47;;;6.02;73.16
41703;BME280;861;48.808;9.006;2022-12-01T04:01:02;97593.56;;;6.05;72.01
41703;BME280;861;48.808;9.006;2022-12-01T04:03:30;97590.19;;;6.08;71.24
41703;BME280;861;48.808;9.006;2022-12-01T04:05:57;97589.09;;;5.97;71.88
41703;BME280;861;48.808;9.006;2022-12-01T04:08:24;97590.47;;;5.67;74.03
41703;BME280;861;48.808;9.006;2022-12-01T04:10:50;97590.50;;;5.55;73.98
41703;BME280;861;48.808;9.006;2022-12-01T04:13:16;97589.47;;;5.72;72.25
41703;BME280;861;48.808;9.006;2022-12-01T04:15:54;97582.28;;;5.64;72.98
41703;BME280;861;48.808;9.006;2022-12-01T04:18:21;97588.34;;;5.73;72.70
41703;BME280;861;48.808;9.006;2022-12-01T04:20:49;97587.69;;;5.64;73.46
41703;BME280;861;48.808;9.006;2022-12-01T04:23:15;97587.44;;;5.57;73.68
41703;BME280;861;48.808;9.006;2022-12-01T04:26:03;97590.59;;;5.83;73.33
41703;BME280;861;48.808;9.006;2022-12-01T04:28:30;97588.53;;;5.80;73.96
41703;BME280;861;48.808;9.006;2022-12-01T04:30:56;97594.63;;;5.77;74.02
41703;BME280;861;48.808;9.006;2022-12-01T04:33:22;97584.16;;;5.75;73.44
41703;BME280;861;48.808;9.006;2022-12-01T04:35:58;97583.84;;;5.65;74.12
41703;BME280;861;48.808;9.006;2022-12-01T04:38:26;97588.22;;;5.81;73.69
41703;BME280;861;48.808;9.006;2022-12-01T04:40:52;97591.16;;;5.88;73.41
41703;BME280;861;48.808;9.006;2022-12-01T04:43:19;97593.72;;;5.97;72.97
41703;BME280;861;48.808;9.006;2022-12-01T04:45:45;97591.38;;;5.71;73.03
41703;BME280;861;48.808;9.006;2022-12-01T04:48:11;97602.97;;;5.60;73.47
41703;BME280;861;48.808;9.006;2022-12-01T04:50:37;97597.13;;;5.58;74.21
41703;BME280;861;48.808;9.006;2022-12-01T04:53:05;97597.59;;;5.48;74.91
41703;BME280;861;48.808;9.006;2022-12-01T04:55:35;97599.94;;;5.49;75.14
41703;BME280;861;48.808;9.006;2022-12-01T04:58:04;97598.81;;;5.50;74.66
41703;BME280;861;48.808;9.006;2022-12-01T05:00:31;97604.56;;;5.61;74.00
41703;BME280;861;48.808;9.006;2022-12-01T05:02:59;97600.75;;;5.26;75.21
41703;BME280;861;48.808;9.006;2022-12-01T05:05:26;97612.78;;;5.52;74.28
41703;BME280;861;48.808;9.006;2022-12-01T05:07:52;97608.28;;;5.68;74.13
41703;BME280;861;48.808;9.006;2022-12-01T05:10:18;97596.56;;;5.76;72.95
41703;BME280;861;48.808;9.006;2022-12-01T05:12:45;97601.19;;;5.64;73.69
41703;BME280;861;48.808;9.006;2022-12-01T05:15:12;97608.50;;;5.63;74.26
41703;BME280;861;48.808;9.006;2022-12-01T05:17:39;97614.22;;;5.74;73.77
41703;BME280;861;48.808;9.006;2022-12-01T05:20:06;97605.00;;;5.87;73.32
41703;BME280;861;48.808;9.006;2022-12-01T05:22:57;97606.22;;;5.89;73.63
41703;BME280;861;48.808;9.006;2022-12-01T05:25:24;97613.53;;;5.77;74.30
41703;BME280;861;48.808;9.006;2022-12-01T05:27:50;97614.13;;;5.70;74.31
41703;BME280;861;48.808;9.006;2022-12-01T05:30:16;97605.22;;;5.82;73.81
41703;BME280;861;48.808;9.006;2022-12-01T05:32:42;97615.47;;;5.88;73.33
41703;BME280;861;48.808;9.006;2022-12-01T05:35:08;97609.84;;;5.93;73.26
41703;BME280;861;48.808;9.006;2022-12-01T05:37:34;97602.75;;;5.89;73.55
41703;BME280;861;48.808;9.006;2022-12-01T05:40:01;97599.31;;;6.04;72.38
41703;BME280;861;48.808;9.006;2022-12-01T05:42:27;97601.50;;;5.86;73.41
41703;BME280;861;48.808;9.006;2022-12-01T05:44:53;97599.94;;;5.85;73.63
41703;BME280;861;48.808;9.006;2022-12-01T05:47:19;97607.34;;;5.76;74.23
41703;BME280;861;48.808;9.006;2022-12-01T05:49:46;97605.91;;;5.67;74.93
41703;BME280;861;48.808;9.006;2022-12-01T05:52:12;97604.75;;;5.80;74.81
41703;BME280;861;48.808;9.006;2022-12-01T05:54:38;97603.63;;;6.05;73.57
41703;BME280;861;48.808;9.006;2022-12-01T05:57:05;97604.66;;;6.28;72.54
41703;BME280;861;48.808;9.006;2022-12-01T05:59:31;97602.50;;;6.06;74.54
41703;BME280;861;48.808;9.006;2022-12-01T06:01:57;97605.72;;;6.11;73.35
41703;BME280;861;48.808;9.006;2022-12-01T06:04:23;97616.19;;;6.25;74.69
41703;BME280;861;48.808;9.006;2022-12-01T06:06:50;97615.66;;;6.35;73.52
41703;BME280;861;48.808;9.006;2022-12-01T06:09:16;97609.00;;;6.72;73.75
41703;BME280;861;48.808;9.006;2022-12-01T06:11:42;97611.81;;;6.91;71.76
41703;BME280;861;48.808;9.006;2022-12-01T06:14:08;97617.47;;;6.71;71.54
41703;BME280;861;48.808;9.006;2022-12-01T06:16:34;97617.75;;;6.26;72.21
41703;BME280;861;48.808;9.006;2022-12-01T06:19:01;97617.63;;;6.22;72.44
41703;BME280;861;48.808;9.006;2022-12-01T06:21:27;97620.91;;;6.28;72.26
41703;BME280;861;48.808;9.006;2022-12-01T06:23:53;97613.03;;;6.23;72.29
41703;BME280;861;48.808;9.006;2022-12-01T06:26:19;97607.47;;;6.32;71.70
41703;BME280;861;48.808;9.006;2022-12-01T06:28:45;97608.94;;;6.29;71.23
41703;BME280;861;48.808;9.006;2022-12-01T06:31:12;97613.94;;;6.27;72.02
41703;BME280;861;48.808;9.006;2022-12-01T06:33:38;97616.38;;;6.32;71.76
41703;BME280;861;48.808;9.006;2022-12-01T06:36:06;97623.19;;;6.14;72.31
41703;BME280;861;48.808;9.006;2022-12-01T06:38:35;97626.69;;;6.02;73.25
41703;BME280;861;48.808;9.006;2022-12-01T06:41:03;97626.34;;;6.04;72.73
41703;BME280;861;48.808;9.006;2022-12-01T06:43:30;97627.16;;;6.04;73.24
41703;BME280;861;48.808;9.006;2022-12-01T06:45:57;97629.06;;;5.80;73.93
41703;BME280;861;48.808;9.006;2022-12-01T06:48:23;97635.03;;;6.09;74.10
41703;BME280;861;48.808;9.006;2022-12-01T06:50:49;97632.34;;;6.09;72.64
41703;BME280;861;48.808;9.006;2022-12-01T06:53:15;97634.00;;;6.14;72.18
41703;BME280;861;48.808;9.006;2022-12-01T06:55:41;97637.31;;;5.95;73.06
41703;BME280;861;48.808;9.006;2022-12-01T06:58:07;97642.47;;;5.76;73.46
41703;BME280;861;48.808;9.006;2022-12-01T07:00:33;97642.94;;;5.54;75.35
41703;BME280;861;48.808;9.006;2022-12-01T07:02:59;97645.88;;;5.73;74.99
41703;BME280;861;48.808;9.006;2022-12-01T07:05:26;97641.00;;;5.79;75.10
41703;BME280;861;48.808;9.006;2022-12-01T07:07:52;97640.78;;;5.60;74.95
41703;BME280;861;48.808;9.006;2022-12-01T07:10:18;97650.81;;;5.83;74.97
41703;BME280;861;48.808;9.006;2022-12-01T07:12:44;97640.34;;;5.82;73.85
41703;BME280;861;48.808;9.006;2022-12-01T07:15:10;97648.13;;;5.83;74.14
41703;BME280;861;48.808;9.006;2022-12-01T07:17:36;97643.28;;;5.89;74.64
41703;BME280;861;48.808;9.006;2022-12-01T07:20:03;97640.66;;;6.04;73.93
41703;BME280;861;48.808;9.006;2022-12-01T07:22:30;97649.34;;;5.98;73.77
41703;BME280;861;48.808;9.006;2022-12-01T07:24:56;97644.81;;;6.14;73.28
41703;BME280;861;48.808;9.006;2022-12-01T07:27:22;97651.72;;;5.99;72.97
41703;BME280;861;48.808;9.006;2022-12-01T07:29:48;97650.38;;;5.93;73.37
41703;BME280;861;48.808;9.006;2022-12-01T07:32:15;97652.72;;;5.95;74.02
41703;BME280;861;48.808;9.006;2022-12-01T07:34:41;97660.88;;;5.83;74.39
41703;BME280;861;48.808;9.006;2022-12-01T07:37:07;97659.63;;;5.92;74.08
41703;BME280;861;48.808;9.006;2022-12-01T07:39:33;97661.53;;;5.92;74.45
41703;BME280;861;48.808;9.006;2022-12-01T07:41:59;97665.94;;;5.84;74.65
41703;BME280;861;48.808;9.006;2022-12-01T07:44:25;97672.13;;;5.97;74.63
41703;BME280;861;48.808;9.006;2022-12-01T07:46:53;97672.19;;;5.76;74.77
41703;BME280;861;48.808;9.006;2022-12-01T07:49:19;97664.13;;;5.88;74.40
41703;BME280;861;48.808;9.006;2022-12-01T07:51:45;97667.50;;;5.85;75.34
41703;BME280;861;48.808;9.006;2022-12-01T07:54:11;97670.63;;;5.99;74.79
41703;BME280;861;48.808;9.006;2022-12-01T07:56:40;97676.75;;;5.84;74.51
41703;BME280;861;48.808;9.006;2022-12-01T07:59:06;97671.88;;;5.90;74.49
41703;BME280;861;48.808;9.006;2022-12-01T08:01:32;97665.66;;;6.26;73.13
41703;BME280;861;48.808;9.006;2022-12-01T08:03:59;97677.16;;;6.10;73.68
41703;BME280;861;48.808;9.006;2022-12-01T08:06:26;97679.97;;;6.02;73.31
41703;BME280;861;48.808;9.006;2022-12-01T08:08:52;97677.84;;;6.07;72.48
41703;BME280;861;48.808;9.006;2022-12-01T08:11:24;97677.25;;;6.02;72.55
41703;BME280;861;48.808;9.006;2022-12-01T08:13:54;97671.53;;;5.79;73.56
41703;BME280;861;48.808;9.006;2022-12-01T08:16:24;97677.41;;;5.93;73.09
41703;BME280;861;48.808;9.006;2022-12-01T08:18:51;97670.75;;;5.91;72.63
41703;BME280;861;48.808;9.006;2022-12-01T08:21:22;97668.94;;;5.59;75.10
41703;BME280;861;48.808;9.006;2022-12-01T08:23:56;97676.94;;;5.79;73.96
41703;BME280;861;48.808;9.006;2022-12-01T08:26:25;97674.22;;;5.79;74.22
41703;BME280;861;48.808;9.006;2022-12-01T08:28:52;97675.59;;;5.73;74.37
41703;BME280;861;48.808;9.006;2022-12-01T08:31:30;97671.63;;;5.47;75.78
41703;BME280;861;48.808;9.006;2022-12-01T08:34:04;97680.31;;;5.76;74.22
41703;BME280;861;48.808;9.006;2022-12-01T08:36:32;97677.03;;;5.59;75.53
41703;BME280;861;48.808;9.006;2022-12-01T08:41:33;97673.09;;;5.56;75.39
41703;BME280;861;48.808;9.006;2022-12-01T08:43:59;97681.09;;;5.53;75.03
41703;BME280;861;48.808;9.006;2022-12-01T08:46:31;97690.50;;;5.35;76.35
41703;BME280;861;48.808;9.006;2022-12-01T08:49:03;97696.41;;;5.04;77.81
41703;BME280;861;48.808;9.006;2022-12-01T08:51:31;97697.72;;;5.31;77.29
41703;BME280;861;48.808;9.006;2022-12-01T08:53:59;97691.06;;;5.28;77.38
41703;BME280;861;48.808;9.006;2022-12-01T08:56:32;97690.41;;;5.43;77.15
41703;BME280;861;48.808;9.006;2022-12-01T08:59:01;97690.41;;;5.55;76.45
41703;BME280;861;48.808;9.006;2022-12-01T09:01:28;97693.25;;;5.59;76.10
41703;BME280;861;48.808;9.006;2022-12-01T09:04:00;97700.38;;;5.87;74.06
41703;BME280;861;48.808;9.006;2022-12-01T09:06:37;97692.69;;;5.77;74.70
41703;BME280;861;48.808;9.006;2022-12-01T09:09:09;97693.91;;;5.80;73.75
41703;BME280;861;48.808;9.006;2022-12-01T09:11:38;97694.84;;;5.84;73.75
41703;BME280;861;48.808;9.006;2022-12-01T09:14:05;97697.06;;;5.46;75.43
41703;BME280;861;48.808;9.006;2022-12-01T09:16:31;97696.63;;;5.68;74.38
41703;BME280;861;48.808;9.006;2022-12-01T09:18:58;97695.22;;;5.38;76.26
41703;BME280;861;48.808;9.006;2022-12-01T09:21:29;97699.19;;;5.52;75.78
41703;BME280;861;48.808;9.006;2022-12-01T09:23:56;97704.72;;;5.68;75.04
41703;BME280;861;48.808;9.006;2022-12-01T09:26:23;97701.66;;;5.45;75.73
41703;BME280;861;48.808;9.006;2022-12-01T09:29:03;97694.13;;;5.39;76.68
41703;BME280;861;48.808;9.006;2022-12-01T09:31:31;97682.31;;;5.55;75.16
41703;BME280;861;48.808;9.006;2022-12-01T09:34:03;97683.00;;;5.52;76.16
41703;BME280;861;48.808;9.006;2022-12-01T09:36:35;97688.41;;;5.52;75.29
41703;BME280;861;48.808;9.006;2022-12-01T09:39:06;97695.91;;;5.35;76.62
41703;BME280;861;48.808;9.006;2022-12-01T09:41:54;97684.34;;;5.46;76.89
41703;BME280;861;48.808;9.006;2022-12-01T09:44:41;97691.78;;;5.37;76.90
41703;BME280;861;48.808;9.006;2022-12-01T09:47:36;97687.16;;;5.62;75.24
41703;BME280;861;48.808;9.006;2022-12-01T09:50:19;97685.81;;;5.68;74.78
41703;BME280;861;48.808;9.006;2022-12-01T09:53:02;97687.03;;;5.58;75.65
41703;BME280;861;48.808;9.006;2022-12-01T09:55:35;97682.56;;;5.62;75.45
41703;BME280;861;48.808;9.006;2022-12-01T09:58:15;97671.97;;;5.57;75.80
41703;BME280;861;48.808;9.006;2022-12-01T10:00:48;97675.56;;;5.37;76.37
41703;BME280;861;48.808;9.006;2022-12-01T10:03:46;97674.88;;;5.64;75.48
41703;BME280;861;48.808;9.006;2022-12-01T10:06:39;97673.53;;;5.46;76.51
41703;BME280;861;48.808;9.006;2022-12-01T10:09:42;97678.94;;;5.58;76.26
41703;BME280;861;48.808;9.006;2022-12-01T10:12:22;97682.66;;;5.66;74.85
41703;BME280;861;48.808;9.006;2022-12-01T10:15:26;97671.84;;;5.54;75.50
41703;BME280;861;48.808;9.006;2022-12-01T10:25:23;97663.88;;;5.57;74.92
41703;BME280;861;48.808;9.006;2022-12-01T10:34:22;97654.94;;;5.09;77.96
41703;BME280;861;48.808;9.006;2022-12-01T10:36:54;97648.19;;;5.03;78.93
41703;BME280;861;48.808;9.006;2022-12-01T10:39:38;97650.91;;;5.63;75.21
41703;BME280;861;48.808;9.006;2022-12-01T10:42:42;97646.88;;;5.57;75.42
41703;BME280;861;48.808;9.006;2022-12-01T10:45:46;97646.84;;;5.33;76.88
41703;BME280;861;48.808;9.006;2022-12-01T10:48:21;97645.38;;;5.23;78.00
41703;BME280;861;48.808;9.006;2022-12-01T10:50:53;97644.06;;;5.41;76.33
41703;BME280;861;48.808;9.006;2022-12-01T10:53:31;97644.81;;;5.30;77.10
41703;BME280;861;48.808;9.006;2022-12-01T10:56:15;97637.75;;;5.49;76.40
41703;BME280;861;48.808;9.006;2022-12-01T10:59:01;97633.94;;;5.50;76.09
41703;BME280;861;48.808;9.006;2022-12-01T11:01:47;97635.06;;;5.37;77.47
41703;BME280;861;48.808;9.006;2022-12-01T11:04:39;97634.38;;;5.76;75.04
41703;BME280;861;48.808;9.006;2022-12-01T11:07:28;97634.25;;;5.49;76.64
41703;BME280;861;48.808;9.006;2022-12-01T11:10:18;97629.19;;;5.71;75.17
41703;BME280;861;48.808;9.006;2022-12-01T11:16:00;97629.06;;;5.44;77.13
41703;BME280;861;48.808;9.006;2022-12-01T11:18:37;97632.56;;;5.44;77.64
41703;BME280;861;48.808;9.006;2022-12-01T11:21:26;97634.47;;;5.68;76.86
41703;BME280;861;48.808;9.006;2022-12-01T11:23:55;97618.50;;;5.75;75.70
41703;BME280;861;48.808;9.006;2022-12-01T11:26:30;97624.13;;;6.06;74.40
41703;BME280;861;48.808;9.006;2022-12-01T11:29:34;97621.44;;;5.70;75.39
41703;BME280;861;48.808;9.006;2022-12-01T11:32:21;97621.78;;;5.68;75.46
41703;BME280;861;48.808;9.006;2022-12-01T11:37:46;97617.94;;;5.33;78.46
41703;BME280;861;48.808;9.006;2022-12-01T11:43:04;97609.03;;;5.81;77.49
41703;BME280;861;48.808;9.006;2022-12-01T11:45:38;97605.19;;;6.06;74.53
41703;BME280;861;48.808;9.006;2022-12-01T11:48:23;97603.06;;;5.75;75.85
41703;BME280;861;48.808;9.006;2022-12-01T11:51:28;97599.59;;;5.63;75.53
41703;BME280;861;48.808;9.006;2022-12-01T11:54:24;97605.34;;;5.49;78.24
41703;BME280;861;48.808;9.006;2022-12-01T11:56:53;97600.69;;;5.98;74.87
41703;BME280;861;48.808;9.006;2022-12-01T11:59:27;97597.19;;;5.97;74.59
41703;BME280;861;48.808;9.006;2022-12-01T12:05:49;97605.22;;;5.70;77.07
41703;BME280;861;48.808;9.006;2022-12-01T12:09:07;97594.56;;;6.13;74.49
41703;BME280;861;48.808;9.006;2022-12-01T12:12:29;97590.03;;;5.65;77.50
41703;BME280;861;48.808;9.006;2022-12-01T12:15:45;97599.25;;;5.64;78.10
41703;BME280;861;48.808;9.006;2022-12-01T12:18:40;97592.06;;;5.92;75.85
41703;BME280;861;48.808;9.006;2022-12-01T12:28:43;97585.63;;;5.97;75.37
41703;BME280;861;48.808;9.006;2022-12-01T12:41:55;97579.94;;;6.02;75.08
41703;BME280;861;48.808;9.006;2022-12-01T12:44:55;97577.47;;;6.09;75.17
41703;BME280;861;48.808;9.006;2022-12-01T12:48:40;97566.78;;;6.00;75.57
41703;BME280;861;48.808;9.006;2022-12-01T12:51:39;97569.19;;;5.90;75.63
41703;BME280;861;48.808;9.006;2022-12-01T12:54:14;97578.75;;;5.75;75.72
41703;BME280;861;48.808;9.006;2022-12-01T12:57:17;97571.66;;;5.71;76.56
41703;BME280;861;48.808;9.006;2022-12-01T13:00:13;97567.84;;;5.72;76.52
41703;BME280;861;48.808;9.006;2022-12-01T13:03:23;97563.72;;;5.62;77.76
41703;BME280;861;48.808;9.006;2022-12-01T13:06:44;97573.25;;;5.72;78.02
41703;BME280;861;48.808;9.006;2022-12-01T13:09:44;97566.59;;;5.81;77.05
41703;BME280;861;48.808;9.006;2022-12-01T13:12:36;97572.59;;;5.63;78.32
41703;BME280;861;48.808;9.006;2022-12-01T13:15:19;97571.91;;;5.78;78.35
41703;BME280;861;48.808;9.006;2022-12-01T13:18:38;97567.44;;;6.37;73.78
41703;BME280;861;48.808;9.006;2022-12-01T13:21:18;97572.28;;;6.16;75.39
41703;BME280;861;48.808;9.006;2022-12-01T13:23:49;97570.44;;;5.92;76.78
41703;BME280;861;48.808;9.006;2022-12-01T13:26:21;97568.09;;;6.18;74.67
41703;BME280;861;48.808;9.006;2022-12-01T13:28:54;97562.41;;;5.96;76.11
41703;BME280;861;48.808;9.006;2022-12-01T13:31:23;97556.97;;;6.08;75.48
41703;BME280;861;48.808;9.006;2022-12-01T13:33:58;97560.09;;;6.10;74.95
41703;BME280;861;48.808;9.006;2022-12-01T13:36:30;97553.94;;;5.97;75.79
41703;BME280;861;48.808;9.006;2022-12-01T13:39:29;97560.84;;;5.95;76.51
41703;BME280;861;48.808;9.006;2022-12-01T13:42:23;97566.00;;;6.00;76.41
41703;BME280;861;48.808;9.006;2022-12-01T13:45:07;97564.22;;;5.92;77.97
41703;BME280;861;48.808;9.006;2022-12-01T13:47:54;97563.50;;;6.07;76.25
41703;BME280;861;48.808;9.006;2022-12-01T13:58:49;97560.06;;;5.94;77.47
41703;BME280;861;48.808;9.006;2022-12-01T14:04:23;97555.84;;;6.09;75.74
41703;BME280;861;48.808;9.006;2022-12-01T14:07:26;97559.56;;;6.04;76.63
41703;BME280;861;48.808;9.006;2022-12-01T14:10:27;97562.56;;;6.15;75.99
41703;BME280;861;48.808;9.006;2022-12-01T14:13:03;97560.59;;;6.28;76.14
41703;BME280;861;48.808;9.006;2022-12-01T14:15:41;97561.94;;;6.34;75.37
41703;BME280;861;48.808;9.006;2022-12-01T14:20:47;97561.03;;;6.57;74.33
41703;BME280;861;48.808;9.006;2022-12-01T14:23:30;97557.13;;;6.27;75.59
41703;BME280;861;48.808;9.006;2022-12-01T14:26:11;97558.41;;;6.17;75.89
41703;BME280;861;48.808;9.006;2022-12-01T14:34:08;97558.97;;;6.39;75.12
41703;BME280;861;48.808;9.006;2022-12-01T14:36:57;97561.81;;;6.14;76.19
41703;BME280;861;48.808;9.006;2022-12-01T14:40:02;97556.28;;;6.11;75.21
41703;BME280;861;48.808;9.006;2022-12-01T14:42:38;97558.44;;;6.05;77.15
41703;BME280;861;48.808;9.006;2022-12-01T14:46:05;97566.66;;;6.09;75.07
41703;BME280;861;48.808;9.006;2022-12-01T14:48:44;97561.59;;;6.07;75.45
41703;BME280;861;48.808;9.006;2022-12-01T14:51:36;97557.94;;;5.76;77.47
41703;BME280;861;48.808;9.006;2022-12-01T14:54:19;97562.31;;;5.80;77.85
41703;BME280;861;48.808;9.006;2022-12-01T14:56:58;97560.41;;;5.81;78.52
41703;BME280;861;48.808;9.006;2022-12-01T14:59:28;97562.97;;;6.01;77.01
41703;BME280;861;48.808;9.006;2022-12-01T15:02:04;97557.13;;;5.99;77.52
41703;BME280;861;48.808;9.006;2022-12-01T15:08:45;97557.22;;;6.31;75.18
41703;BME280;861;48.808;9.006;2022-12-01T15:11:27;97553.44;;;6.19;76.32
41703;BME280;861;48.808;9.006;2022-12-01T15:13:56;97551.22;;;6.09;76.16
41703;BME280;861;48.808;9.006;2022-12-01T15:16:29;97545.84;;;5.97;77.51
41703;BME280;861;48.808;9.006;2022-12-01T15:18:57;97549.25;;;5.94;77.43
41703;BME280;861;48.808;9.006;2022-12-01T15:21:29;97546.66;;;5.98;78.08
41703;BME280;861;48.808;9.006;2022-12-01T15:24:26;97540.56;;;6.01;78.44
41703;BME280;861;48.808;9.006;2022-12-01T15:26:58;97555.31;;;6.03;78.60
41703;BME280;861;48.808;9.006;2022-12-01T15:29:39;97549.97;;;6.07;78.73
41703;BME280;861;48.808;9.006;2022-12-01T15:32:17;97541.72;;;6.43;76.36
41703;BME280;861;48.808;9.006;2022-12-01T15:34:54;97546.44;;;6.46;75.54
41703;BME280;861;48.808;9.006;2022-12-01T15:37:26;97542.88;;;6.58;75.43
41703;BME280;861;48.808;9.006;2022-12-01T15:40:05;97540.69;;;6.48;75.51
41703;BME280;861;48.808;9.006;2022-12-01T15:42:36;97543.91;;;6.38;76.29
41703;BME280;861;48.808;9.006;2022-12-01T15:45:17;97549.66;;;6.36;76.28
41703;BME280;861;48.808;9.006;2022-12-01T15:47:51;97548.34;;;6.30;76.42
41703;BME280;861;48.808;9.006;2022-12-01T15:50:57;97544.41;;;6.43;75.18
41703;BME280;861;48.808;9.006;2022-12-01T15:53:32;97548.56;;;6.68;73.96
41703;BME280;861;48.808;9.006;2022-12-01T15:56:08;97556.75;;;6.56;74.50
41703;BME280;861;48.808;9.006;2022-12-01T15:58:47;97560.03;;;6.34;75.11
41703;BME280;861;48.808;9.006;2022-12-01T16:01:19;97557.16;;;6.15;76.50
41703;BME280;861;48.808;9.006;2022-12-01T16:04:03;97552.88;;;6.42;74.85
41703;BME280;861;48.808;9.006;2022-12-01T16:06:39;97553.88;;;5.94;77.27